createdAt,value
2019-04-28T00:02:02.735Z,7.71
2019-04-28T00:04:31.530Z,7.65
2019-04-28T00:06:58.907Z,7.67
2019-04-28T00:09:26.556Z,7.65
2019-04-28T00:11:53.965Z,7.62
2019-04-28T00:14:22.055Z,7.59
2019-04-28T00:16:51.187Z,7.59
2019-04-28T00:19:20.911Z,7.62
2019-04-28T00:21:54.274Z,7.60
2019-04-28T00:24:32.701Z,7.65
2019-04-28T00:27:02.241Z,7.57
2019-04-28T00:29:38.627Z,7.69
2019-04-28T00:31:58.715Z,7.56
2019-04-28T00:34:26.012Z,7.58
2019-04-28T00:37:02.003Z,7.59
2019-04-28T00:39:30.939Z,7.61
2019-04-28T00:41:58.444Z,7.58
2019-04-28T00:44:26.205Z,7.57
2019-04-28T00:46:53.554Z,7.62
2019-04-28T00:49:41.763Z,7.63
2019-04-28T00:52:10.837Z,7.56
2019-04-28T00:54:38.004Z,7.50
2019-04-28T00:57:05.531Z,7.52
2019-04-28T00:59:33.015Z,7.48
2019-04-28T01:02:05.055Z,7.52
2019-04-28T01:04:32.730Z,7.53
2019-04-28T01:07:01.641Z,7.56
2019-04-28T01:09:29.357Z,7.53
2019-04-28T01:11:56.844Z,7.50
2019-04-28T01:14:24.511Z,7.57
2019-04-28T01:16:59.843Z,7.52
2019-04-28T01:19:31.554Z,7.53
2019-04-28T01:22:12.824Z,7.46
2019-04-28T01:24:41.061Z,7.36
2019-04-28T01:27:20.403Z,7.42
2019-04-28T01:29:49.870Z,7.51
2019-04-28T01:32:36.544Z,7.56
2019-04-28T01:35:05.228Z,7.46
2019-04-28T01:37:32.371Z,7.46
2019-04-28T01:39:59.847Z,7.47
2019-04-28T01:42:27.194Z,7.26
2019-04-28T01:45:01.783Z,7.34
2019-04-28T01:47:30.640Z,7.37
2019-04-28T01:49:57.893Z,7.28
2019-04-28T01:52:25.152Z,7.33
2019-04-28T01:54:52.519Z,7.26
2019-04-28T01:57:21.488Z,7.22
2019-04-28T01:59:50.580Z,7.21
2019-04-28T02:02:19.985Z,7.28
2019-04-28T02:04:49.924Z,7.36
2019-04-28T02:07:20.546Z,7.32
2019-04-28T02:09:52.857Z,7.37
2019-04-28T02:12:20.886Z,7.17
2019-04-28T02:14:49.985Z,7.17
2019-04-28T02:17:20.292Z,7.25
2019-04-28T02:19:47.881Z,7.33
2019-04-28T02:22:24.479Z,7.33
2019-04-28T02:24:51.832Z,7.34
2019-04-28T02:27:20.336Z,7.22
2019-04-28T02:29:47.671Z,7.20
2019-04-28T02:32:14.832Z,7.23
2019-04-28T02:34:42.717Z,7.17
2019-04-28T02:37:11.346Z,7.00
2019-04-28T02:39:40.879Z,6.94
2019-04-28T02:42:10.670Z,7.05
2019-04-28T02:44:40.244Z,7.04
2019-04-28T02:47:06.887Z,6.88
2019-04-28T02:49:53.918Z,7.06
2019-04-28T02:52:41.448Z,7.00
2019-04-28T02:55:11.255Z,6.94
2019-04-28T02:57:40.645Z,6.84
2019-04-28T03:00:10.137Z,6.84
2019-04-28T03:02:37.094Z,6.89
2019-04-28T03:05:05.814Z,6.85
2019-04-28T03:07:33.083Z,6.71
2019-04-28T03:10:03.473Z,6.88
2019-04-28T03:12:31.435Z,6.82
2019-04-28T03:15:00.613Z,6.85
2019-04-28T03:17:30.992Z,6.90
2019-04-28T03:19:57.654Z,6.79
2019-04-28T03:22:25.142Z,6.78
2019-04-28T03:24:54.321Z,6.76
2019-04-28T03:27:35.043Z,6.83
2019-04-28T03:30:13.259Z,6.71
2019-04-28T03:32:53.071Z,6.86
2019-04-28T03:35:13.627Z,6.78
2019-04-28T03:37:41.448Z,6.69
2019-04-28T03:40:10.875Z,6.72
2019-04-28T03:42:40.955Z,6.73
2019-04-28T03:45:15.378Z,6.53
2019-04-28T03:47:42.649Z,6.65
2019-04-28T03:50:10.616Z,6.62
2019-04-28T03:52:37.869Z,6.68
2019-04-28T03:55:05.329Z,6.63
2019-04-28T03:57:32.828Z,6.55
2019-04-28T04:00:01.445Z,6.54
2019-04-28T04:02:31.196Z,6.57
2019-04-28T04:05:00.780Z,6.56
2019-04-28T04:07:27.435Z,6.48
2019-04-28T04:10:11.329Z,6.51
2019-04-28T04:12:47.343Z,6.47
2019-04-28T04:15:46.737Z,6.42
2019-04-28T04:18:20.723Z,6.47
2019-04-28T04:20:47.848Z,6.42
2019-04-28T04:23:15.245Z,6.46
2019-04-28T04:25:42.623Z,6.26
2019-04-28T04:28:10.551Z,6.36
2019-04-28T04:30:40.609Z,6.34
2019-04-28T04:33:07.365Z,6.35
2019-04-28T04:35:34.705Z,6.38
2019-04-28T04:38:02.202Z,6.38
2019-04-28T04:40:31.737Z,6.31
2019-04-28T04:43:01.265Z,6.20
2019-04-28T04:45:30.400Z,6.39
2019-04-28T04:47:57.117Z,6.30
2019-04-28T04:50:24.388Z,6.19
2019-04-28T04:52:51.650Z,6.35
2019-04-28T04:55:21.156Z,6.29
2019-04-28T04:57:50.614Z,6.18
2019-04-28T05:00:30.659Z,6.12
2019-04-28T05:03:10.474Z,6.22
2019-04-28T05:05:40.373Z,6.22
2019-04-28T05:08:07.677Z,6.34
2019-04-28T05:10:34.933Z,6.26
2019-04-28T05:13:02.191Z,6.20
2019-04-28T05:15:30.382Z,6.26
2019-04-28T05:17:57.934Z,6.26
2019-04-28T05:20:25.300Z,6.24
2019-04-28T05:23:02.798Z,6.35
2019-04-28T05:25:35.186Z,6.45
2019-04-28T05:28:03.131Z,6.46
2019-04-28T05:30:30.355Z,6.52
2019-04-28T05:32:57.550Z,6.65
2019-04-28T05:35:25.230Z,6.65
2019-04-28T05:37:52.430Z,6.73
2019-04-28T05:40:20.581Z,6.69
2019-04-28T05:43:01.058Z,6.93
2019-04-28T05:45:31.901Z,7.10
2019-04-28T05:47:59.782Z,7.17
2019-04-28T05:50:50.119Z,7.50
2019-04-28T05:53:27.070Z,7.63
2019-04-28T05:56:10.282Z,7.74
2019-04-28T05:58:50.445Z,8.00
2019-04-28T06:01:40.696Z,8.21
2019-04-28T06:04:09.591Z,8.24
2019-04-28T06:06:40.554Z,8.48
2019-04-28T06:09:26.591Z,8.52
2019-04-28T06:11:54.632Z,8.73
2019-04-28T06:14:22.019Z,8.99
2019-04-28T06:16:50.656Z,8.97
2019-04-28T06:19:17.904Z,9.10
2019-04-28T06:21:45.170Z,9.21
2019-04-28T06:24:12.429Z,9.33
2019-04-28T06:26:39.602Z,9.49
2019-04-28T06:29:07.058Z,9.58
2019-04-28T06:31:34.475Z,9.79
2019-04-28T06:34:01.881Z,9.83
2019-04-28T06:36:29.127Z,9.98
2019-04-28T06:38:56.386Z,9.99
2019-04-28T06:41:23.651Z,9.96
2019-04-28T06:43:51.019Z,9.91
2019-04-28T06:46:18.292Z,9.98
2019-04-28T06:48:45.557Z,10.04
2019-04-28T06:51:13.114Z,10.28
2019-04-28T06:53:40.448Z,10.35
2019-04-28T06:56:07.680Z,10.38
2019-04-28T06:58:34.982Z,10.24
2019-04-28T07:01:02.659Z,10.38
2019-04-28T07:03:29.802Z,10.58
2019-04-28T07:05:57.064Z,10.56
2019-04-28T07:08:24.213Z,10.73
2019-04-28T07:10:51.715Z,10.89
2019-04-28T07:13:20.670Z,11.01
2019-04-28T07:15:48.309Z,10.93
2019-04-28T07:18:15.556Z,10.91
2019-04-28T07:20:52.711Z,10.82
2019-04-28T07:23:20.093Z,10.91
2019-04-28T07:25:47.241Z,10.91
2019-04-28T07:28:14.500Z,10.87
2019-04-28T07:30:41.883Z,10.85
2019-04-28T07:33:09.694Z,10.90
2019-04-28T07:35:36.869Z,10.94
2019-04-28T07:38:04.391Z,10.83
2019-04-28T07:40:32.093Z,10.91
2019-04-28T07:42:59.469Z,10.83
2019-04-28T07:45:26.771Z,10.95
2019-04-28T07:47:54.141Z,11.08
2019-04-28T07:50:23.089Z,11.03
2019-04-28T07:53:12.695Z,11.04
2019-04-28T07:55:39.858Z,11.14
2019-04-28T07:58:07.227Z,11.22
2019-04-28T08:00:34.695Z,11.16
2019-04-28T08:03:01.993Z,11.28
2019-04-28T08:05:29.257Z,11.37
2019-04-28T08:07:56.646Z,11.23
2019-04-28T08:10:24.124Z,11.25
2019-04-28T08:12:51.303Z,11.41
2019-04-28T08:15:18.790Z,11.41
2019-04-28T08:17:45.943Z,11.56
2019-04-28T08:20:14.314Z,11.69
2019-04-28T08:22:41.581Z,11.88
2019-04-28T08:25:10.835Z,11.85
2019-04-28T08:27:38.242Z,11.97
2019-04-28T08:30:06.429Z,11.90
2019-04-28T08:32:43.308Z,11.91
2019-04-28T08:35:11.361Z,11.93
2019-04-28T08:37:38.790Z,11.95
2019-04-28T08:40:06.451Z,11.84
2019-04-28T08:42:33.847Z,11.86
2019-04-28T08:45:01.104Z,11.94
2019-04-28T08:47:28.465Z,12.03
2019-04-28T08:49:55.809Z,12.06
2019-04-28T08:52:23.313Z,12.00
2019-04-28T08:54:50.579Z,12.20
2019-04-28T08:57:17.985Z,12.36
2019-04-28T08:59:45.290Z,12.43
2019-04-28T09:02:12.666Z,12.60
2019-04-28T09:04:39.892Z,12.63
2019-04-28T09:07:07.232Z,12.80
2019-04-28T09:09:34.640Z,12.91
2019-04-28T09:12:02.021Z,13.12
2019-04-28T09:14:29.411Z,13.00
2019-04-28T09:16:56.805Z,13.12
2019-04-28T09:19:23.967Z,13.11
2019-04-28T09:21:51.251Z,13.12
2019-04-28T09:24:18.699Z,13.27
2019-04-28T09:26:45.954Z,13.28
2019-04-28T09:29:13.118Z,13.29
2019-04-28T09:31:40.403Z,13.49
2019-04-28T09:34:07.775Z,13.65
2019-04-28T09:36:35.156Z,13.88
2019-04-28T09:39:05.575Z,13.93
2019-04-28T09:41:33.761Z,13.77
2019-04-28T09:44:07.193Z,13.76
2019-04-28T09:46:36.917Z,13.65
2019-04-28T09:49:04.424Z,13.79
2019-04-28T09:51:31.898Z,13.84
2019-04-28T09:53:59.057Z,14.09
2019-04-28T09:56:26.553Z,14.16
2019-04-28T09:58:53.933Z,14.46
2019-04-28T10:01:21.733Z,14.66
2019-04-28T10:03:49.074Z,14.86
2019-04-28T10:06:16.434Z,15.14
2019-04-28T10:08:43.659Z,15.09
2019-04-28T10:11:10.950Z,15.20
2019-04-28T10:13:38.158Z,15.17
2019-04-28T10:16:05.635Z,15.19
2019-04-28T10:18:33.003Z,15.29
2019-04-28T10:21:13.437Z,15.52
2019-04-28T10:23:41.239Z,15.64
2019-04-28T10:26:08.690Z,15.65
2019-04-28T10:28:36.124Z,15.50
2019-04-28T10:31:05.643Z,15.55
2019-04-28T10:33:33.151Z,15.42
2019-04-28T10:36:00.564Z,15.37
2019-04-28T10:38:28.050Z,15.18
2019-04-28T10:41:00.855Z,15.21
2019-04-28T10:43:28.346Z,15.40
2019-04-28T10:45:56.014Z,15.54
2019-04-28T10:48:23.378Z,15.93
2019-04-28T10:50:50.589Z,16.37
2019-04-28T10:53:17.883Z,16.93
2019-04-28T10:55:45.360Z,17.43
2019-04-28T10:58:12.860Z,18.17
2019-04-28T11:00:41.043Z,18.72
2019-04-28T11:03:22.834Z,18.30
2019-04-28T11:05:50.409Z,17.97
2019-04-28T11:08:25.459Z,17.23
2019-04-28T11:10:53.294Z,16.96
2019-04-28T11:13:20.981Z,16.67
2019-04-28T11:15:48.308Z,16.36
2019-04-28T11:18:16.029Z,15.67
2019-04-28T11:20:46.550Z,15.46
2019-04-28T11:23:13.846Z,15.12
2019-04-28T11:25:41.240Z,14.71
2019-04-28T11:28:08.998Z,14.71
2019-04-28T11:30:36.480Z,14.76
2019-04-28T11:33:26.322Z,14.63
2019-04-28T11:35:53.618Z,14.30
2019-04-28T11:38:21.010Z,14.35
2019-04-28T11:40:48.391Z,14.35
2019-04-28T11:43:17.090Z,14.11
2019-04-28T11:45:48.047Z,14.08
2019-04-28T11:48:15.403Z,14.01
2019-04-28T11:50:42.654Z,14.01
2019-04-28T11:53:09.918Z,14.00
2019-04-28T11:55:37.508Z,14.07
2019-04-28T11:58:05.450Z,13.99
2019-04-28T12:00:33.720Z,13.87
2019-04-28T12:03:01.392Z,13.99
2019-04-28T12:05:46.401Z,13.91
2019-04-28T12:08:13.814Z,14.06
2019-04-28T12:10:47.044Z,14.08
2019-04-28T12:13:34.331Z,14.15
2019-04-28T12:16:24.681Z,14.35
2019-04-28T12:20:41.283Z,14.69
2019-04-28T12:23:09.847Z,14.78
2019-04-28T12:25:37.377Z,15.05
2019-04-28T12:28:04.760Z,15.28
2019-04-28T12:30:32.256Z,15.60
2019-04-28T12:32:59.499Z,15.70
2019-04-28T12:35:26.886Z,16.07
2019-04-28T12:37:54.293Z,16.40
2019-04-28T12:40:22.661Z,16.73
2019-04-28T12:42:49.977Z,17.07
2019-04-28T12:45:17.282Z,17.44
2019-04-28T12:47:44.603Z,17.62
2019-04-28T12:50:18.819Z,17.80
2019-04-28T12:52:46.116Z,18.06
2019-04-28T12:55:13.396Z,18.11
2019-04-28T12:57:40.666Z,18.20
2019-04-28T13:00:31.723Z,18.09
2019-04-28T13:03:15.109Z,18.25
2019-04-28T13:05:44.232Z,18.35
2019-04-28T13:08:11.642Z,18.39
2019-04-28T13:10:38.863Z,18.00
2019-04-28T13:13:06.466Z,18.45
2019-04-28T13:15:33.916Z,18.57
2019-04-28T13:18:01.294Z,18.40
2019-04-28T13:20:28.616Z,18.48
2019-04-28T13:22:56.030Z,18.69
2019-04-28T13:25:23.501Z,18.78
2019-04-28T13:27:50.748Z,18.77
2019-04-28T13:30:18.519Z,18.82
2019-04-28T13:32:45.854Z,18.74
2019-04-28T13:35:14.516Z,18.67
2019-04-28T13:37:41.857Z,18.57
2019-04-28T13:40:15.378Z,18.55
2019-04-28T13:42:42.803Z,18.56
2019-04-28T13:45:14.966Z,18.49
2019-04-28T13:47:42.130Z,18.11
2019-04-28T13:50:16.190Z,18.04
2019-04-28T13:52:45.108Z,18.07
2019-04-28T13:55:37.428Z,17.96
2019-04-28T13:58:04.834Z,17.96
2019-04-28T14:00:47.235Z,17.81
2019-04-28T14:03:25.115Z,17.63
2019-04-28T14:06:00.592Z,17.70
2019-04-28T14:08:27.866Z,17.49
2019-04-28T14:10:57.000Z,17.50
2019-04-28T14:13:24.471Z,17.50
2019-04-28T14:15:52.301Z,17.56
2019-04-28T14:18:20.257Z,17.26
2019-04-28T14:20:47.824Z,17.24
2019-04-28T14:23:17.885Z,17.26
2019-04-28T14:25:45.893Z,17.11
2019-04-28T14:28:20.070Z,16.85
2019-04-28T14:30:47.422Z,16.95
2019-04-28T14:33:16.485Z,16.87
2019-04-28T14:35:43.736Z,17.05
2019-04-28T14:38:11.201Z,16.87
2019-04-28T14:40:40.303Z,16.69
2019-04-28T14:43:07.643Z,16.71
2019-04-28T14:45:35.017Z,16.59
2019-04-28T14:48:02.686Z,16.70
2019-04-28T14:50:30.537Z,16.80
2019-04-28T14:52:57.696Z,16.52
2019-04-28T14:55:24.903Z,16.45
2019-04-28T14:57:52.781Z,16.32
2019-04-28T15:00:24.599Z,16.44
2019-04-28T15:02:59.444Z,16.28
2019-04-28T15:05:39.276Z,16.18
2019-04-28T15:08:25.247Z,16.19
2019-04-28T15:11:21.233Z,16.23
2019-04-28T15:13:48.518Z,16.18
2019-04-28T15:16:16.066Z,16.29
2019-04-28T15:18:47.453Z,16.39
2019-04-28T15:21:14.847Z,16.24
2019-04-28T15:23:42.172Z,16.19
2019-04-28T15:26:09.420Z,16.17
2019-04-28T15:28:36.760Z,16.25
2019-04-28T15:31:04.160Z,16.15
2019-04-28T15:33:31.491Z,16.18
2019-04-28T15:35:58.889Z,16.37
2019-04-28T15:38:26.400Z,16.50
2019-04-28T15:40:53.825Z,16.53
2019-04-28T15:43:21.131Z,16.59
2019-04-28T15:45:48.574Z,16.56
2019-04-28T15:48:16.113Z,16.56
2019-04-28T15:50:43.613Z,16.56
2019-04-28T15:53:10.952Z,16.71
2019-04-28T15:55:47.814Z,16.68
2019-04-28T15:58:33.508Z,16.68
2019-04-28T16:01:01.571Z,16.76
2019-04-28T16:03:29.135Z,16.74
2019-04-28T16:05:59.779Z,16.77
2019-04-28T16:08:26.329Z,16.63
2019-04-28T16:10:54.112Z,16.91
2019-04-28T16:13:21.864Z,17.02
2019-04-28T16:15:49.624Z,17.01
2019-04-28T16:18:17.208Z,16.87
2019-04-28T16:20:44.729Z,16.82
2019-04-28T16:23:12.005Z,16.82
2019-04-28T16:25:40.412Z,16.57
2019-04-28T16:28:07.849Z,16.53
2019-04-28T16:30:35.378Z,16.58
2019-04-28T16:33:02.931Z,16.53
2019-04-28T16:35:30.409Z,16.10
2019-04-28T16:37:57.907Z,16.32
2019-04-28T16:40:39.252Z,16.34
2019-04-28T16:43:20.482Z,16.26
2019-04-28T16:45:47.638Z,16.19
2019-04-28T16:48:14.938Z,16.09
2019-04-28T16:50:42.181Z,15.90
2019-04-28T16:53:09.511Z,15.84
2019-04-28T16:55:57.597Z,15.74
2019-04-28T16:58:37.272Z,15.78
2019-04-28T17:01:24.704Z,15.34
2019-04-28T17:03:52.482Z,15.38
2019-04-28T17:06:20.285Z,15.47
2019-04-28T17:08:47.929Z,15.46
2019-04-28T17:11:15.603Z,15.44
2019-04-28T17:13:43.344Z,15.35
2019-04-28T17:16:11.119Z,15.35
2019-04-28T17:18:38.671Z,15.29
2019-04-28T17:21:06.743Z,15.24
2019-04-28T17:23:34.106Z,15.21
2019-04-28T17:26:01.898Z,15.16
2019-04-28T17:28:29.649Z,15.08
2019-04-28T17:30:57.122Z,15.07
2019-04-28T17:33:24.626Z,14.99
2019-04-28T17:35:51.933Z,14.97
2019-04-28T17:38:19.391Z,14.90
2019-04-28T17:40:47.207Z,14.85
2019-04-28T17:43:14.837Z,14.66
2019-04-28T17:45:42.315Z,14.66
2019-04-28T17:48:22.268Z,14.55
2019-04-28T17:50:51.282Z,14.59
2019-04-28T17:53:25.655Z,14.48
2019-04-28T17:55:54.690Z,14.51
2019-04-28T17:58:22.348Z,14.51
2019-04-28T18:01:21.545Z,14.48
2019-04-28T18:04:17.455Z,14.48
2019-04-28T18:06:49.840Z,14.40
2019-04-28T18:09:18.321Z,14.26
2019-04-28T18:11:46.319Z,14.27
2019-04-28T18:14:14.897Z,14.26
2019-04-28T18:17:11.121Z,14.20
2019-04-28T18:19:42.122Z,14.07
2019-04-28T18:22:09.923Z,13.96
2019-04-28T18:24:40.006Z,13.99
2019-04-28T18:27:07.508Z,13.90
2019-04-28T18:29:35.288Z,13.87
2019-04-28T18:32:34.560Z,13.82
2019-04-28T18:35:08.725Z,13.70
2019-04-28T18:37:56.100Z,13.57
2019-04-28T18:40:45.773Z,13.61
2019-04-28T18:43:21.012Z,13.56
2019-04-28T18:45:48.706Z,13.48
2019-04-28T18:48:16.442Z,13.13
2019-04-28T18:50:44.017Z,13.16
2019-04-28T18:53:11.772Z,13.17
2019-04-28T18:55:39.445Z,13.13
2019-04-28T18:58:07.624Z,13.05
2019-04-28T19:00:43.281Z,12.97
2019-04-28T19:03:11.147Z,12.92
2019-04-28T19:05:42.090Z,12.84
2019-04-28T19:08:32.721Z,12.79
2019-04-28T19:11:22.890Z,12.72
2019-04-28T19:13:55.833Z,12.63
2019-04-28T19:16:49.123Z,12.55
2019-04-28T19:19:17.999Z,12.48
2019-04-28T19:21:56.412Z,12.28
2019-04-28T19:24:25.337Z,12.15
2019-04-28T19:26:53.175Z,12.01
2019-04-28T19:29:21.468Z,12.14
2019-04-28T19:31:49.440Z,11.92
2019-04-28T19:34:17.230Z,11.75
2019-04-28T19:36:45.148Z,11.77
2019-04-28T19:39:12.955Z,11.65
2019-04-28T19:41:40.817Z,11.68
2019-04-28T19:44:08.604Z,11.57
2019-04-28T19:46:36.397Z,11.51
2019-04-28T19:49:04.550Z,11.44
2019-04-28T19:51:32.628Z,11.34
2019-04-28T19:54:00.709Z,11.40
2019-04-28T19:56:36.941Z,11.27
2019-04-28T19:59:12.814Z,11.27
2019-04-28T20:01:40.826Z,11.18
2019-04-28T20:04:08.376Z,11.16
2019-04-28T20:06:36.126Z,11.11
2019-04-28T20:09:05.865Z,10.96
2019-04-28T20:11:33.806Z,11.07
2019-04-28T20:14:01.233Z,10.86
2019-04-28T20:16:28.669Z,10.86
2019-04-28T20:18:56.190Z,10.79
2019-04-28T20:21:23.762Z,10.65
2019-04-28T20:23:51.222Z,10.52
2019-04-28T20:26:18.651Z,10.48
2019-04-28T20:28:45.967Z,10.47
2019-04-28T20:31:13.269Z,10.29
2019-04-28T20:33:40.985Z,10.28
2019-04-28T20:36:15.072Z,10.27
2019-04-28T20:38:43.234Z,10.16
2019-04-28T20:41:22.397Z,10.11
2019-04-28T20:43:49.791Z,10.03
2019-04-28T20:46:17.198Z,9.96
2019-04-28T20:48:49.396Z,10.07
2019-04-28T20:51:17.332Z,10.05
2019-04-28T20:53:44.606Z,9.99
2019-04-28T20:56:11.884Z,9.95
2019-04-28T20:58:39.037Z,9.67
2019-04-28T21:01:06.341Z,9.72
2019-04-28T21:03:33.637Z,9.57
2019-04-28T21:06:00.931Z,9.59
2019-04-28T21:08:28.326Z,9.59
2019-04-28T21:10:55.635Z,9.52
2019-04-28T21:13:22.935Z,9.25
2019-04-28T21:15:50.118Z,9.03
2019-04-28T21:18:17.384Z,8.93
2019-04-28T21:20:44.668Z,8.94
2019-04-28T21:23:12.056Z,8.67
2019-04-28T21:25:39.337Z,8.64
2019-04-28T21:28:06.792Z,8.69
2019-04-28T21:30:39.453Z,8.59
2019-04-28T21:33:06.869Z,8.51
2019-04-28T21:35:33.960Z,8.54
2019-04-28T21:38:01.311Z,8.44
2019-04-28T21:40:28.907Z,8.47
2019-04-28T21:43:05.620Z,8.16
2019-04-28T21:46:01.543Z,8.17
2019-04-28T21:48:35.797Z,7.95
2019-04-28T21:51:03.386Z,7.80
2019-04-28T21:53:34.047Z,7.72
2019-04-28T21:56:01.408Z,7.57
2019-04-28T21:58:33.477Z,7.57
2019-04-28T22:00:58.189Z,8.04
2019-04-28T22:03:25.571Z,7.89
2019-04-28T22:05:52.918Z,7.91
2019-04-28T22:08:20.186Z,7.82
2019-04-28T22:10:47.553Z,7.63
2019-04-28T22:13:14.928Z,7.73
2019-04-28T22:15:42.123Z,7.50
2019-04-28T22:18:09.618Z,7.42
2019-04-28T22:20:36.833Z,7.45
2019-04-28T22:23:18.048Z,7.51
2019-04-28T22:25:36.058Z,7.56
2019-04-28T22:28:03.427Z,7.47
2019-04-28T22:30:30.798Z,7.36
2019-04-28T22:32:58.003Z,7.42
2019-04-28T22:35:25.473Z,7.46
2019-04-28T22:37:52.742Z,7.37
2019-04-28T22:40:20.129Z,7.37
2019-04-28T22:42:47.542Z,7.17
2019-04-28T22:45:15.261Z,7.12
2019-04-28T22:47:42.646Z,7.00
2019-04-28T22:50:33.749Z,7.00
2019-04-28T22:53:01.238Z,6.96
2019-04-28T22:55:30.040Z,7.14
2019-04-28T22:58:32.310Z,7.09
2019-04-28T23:01:05.558Z,6.84
2019-04-28T23:03:47.478Z,6.89
2019-04-28T23:06:15.052Z,6.76
2019-04-28T23:08:42.341Z,6.60
2019-04-28T23:11:09.697Z,6.58
2019-04-28T23:13:37.128Z,6.57
2019-04-28T23:16:04.631Z,6.55
2019-04-28T23:18:32.020Z,6.40
2019-04-28T23:21:02.857Z,6.27
2019-04-28T23:23:30.612Z,6.16
2019-04-28T23:25:57.742Z,6.20
2019-04-28T23:28:25.024Z,6.12
2019-04-28T23:30:52.187Z,6.05
2019-04-28T23:33:19.549Z,6.01
2019-04-28T23:35:46.919Z,6.00
2019-04-28T23:38:14.080Z,5.90
2019-04-28T23:40:57.098Z,5.86
2019-04-28T23:43:24.512Z,5.94
2019-04-28T23:45:51.684Z,5.88
2019-04-28T23:48:18.963Z,5.82
2019-04-28T23:51:00.964Z,5.69
2019-04-28T23:53:46.333Z,5.62
2019-04-28T23:56:13.920Z,5.58
2019-04-28T23:58:41.117Z,5.67
